Irondale, OH (43932)

4:27 AM EDT en Agosto 24, 2016 (GMT -0400)
Chester | | Change Station

Alt 1047 ft 40.61 °N, 80.56 °W | Updated 55 seconds ago

Clear
Despejado
60.7 ° F
Sensación térmica 60.7 ° F
N
0.0
Viento Variable Viento desde Oeste
Gusts 0.0 mph

Hoy
Alta -- | Baja -- ° F
--% Posibilidad de precipitaciones
Ayer
Alta -- | Baja -- ° F
Precip. -- pul
Presión 30.24 pul
Visibilidad 10.0 Millas
Nubes Despejado
Punto de rocío 60 ° F
Humedad 96%
Precipitaciones 0.00 pul
Espesor de la nieve No disponible.
6:42 AM 8:06 PM
Gibosa menguante, 59% visible
METAR KPIT 240751Z 00000KT 10SM CLR 16/14 A3024 RMK AO2 SLP240 T01610139
Presión 30.24 pul
Visibilidad 10.0 Millas
Nubes Despejado
Punto de rocío 60 ° F
Humedad 96%
Precipitaciones 0.00 pul
Espesor de la nieve No disponible.
6:42 AM 8:06 PM
Gibosa menguante, 59% visible
METAR KPIT 240751Z 00000KT 10SM CLR 16/14 A3024 RMK AO2 SLP240 T01610139

10-Day Weather Forecast

Almanac

Astronomía

Aug. 24, 2016 Salida Puesta
Hora real
Crepúsculo civil
Crepúsculo náutico
Crepúsculo astronómico
Luna
Horas de luz
Horas de luz
Tomorrow will be .
, % of the Moon is Illuminated

Extremos de hoy

Máximos del estado Bajos del estado

Community

WunderPhotos

Upload Photos

1,934,560 ¡fotos cargadas!

WunderBlog® & News

Nearby

Calidad del aire

  Calidad del aire Índice AQ Contaminante
Not available.

Grosos de nieve

Estación Profundido Altura

Actividad de terremotos

Ciudad Distance Mag. Tiempo y dato
Magnitud mínima muestra es 2,5.

Temperaturas de aguas costeras

Lugar Temperatura

Stations

Estaciones meteorológicas cercanas

Ubicación de la estación Temp. Vientos helados Punto de rocío Humedad Viento Precip. Alt Actualizado Tipo
                   

Watches & Warnings

There are currently no watches in effect.